sensor_id;sensor_type;location;lat;lon;timestamp;pressure;altitude;pressure_sealevel;temperature;humidity
23677;BME280;31493;49.058;12.190;2022-10-31T00:00:08;96520.84;;;12.84;100.00
23677;BME280;31493;49.058;12.190;2022-10-31T00:02:37;96530.72;;;12.79;100.00
23677;BME280;31493;49.058;12.190;2022-10-31T00:05:06;96534.06;;;12.68;100.00
23677;BME280;31493;49.058;12.190;2022-10-31T00:07:33;96528.97;;;12.79;100.00
23677;BME280;31493;49.058;12.190;2022-10-31T00:10:00;96524.38;;;12.70;100.00
23677;BME280;31493;49.058;12.190;2022-10-31T00:12:27;96524.09;;;12.62;100.00
23677;BME280;31493;49.058;12.190;2022-10-31T00:14:54;96529.09;;;12.65;100.00
23677;BME280;31493;49.058;12.190;2022-10-31T00:17:21;96527.81;;;12.58;100.00
23677;BME280;31493;49.058;12.190;2022-10-31T00:19:48;96541.03;;;12.55;100.00
23677;BME280;31493;49.058;12.190;2022-10-31T00:22:16;96526.28;;;12.68;100.00
23677;BME280;31493;49.058;12.190;2022-10-31T00:24:44;96522.94;;;12.66;100.00
23677;BME280;31493;49.058;12.190;2022-10-31T00:27:11;96536.66;;;12.55;100.00
23677;BME280;31493;49.058;12.190;2022-10-31T00:29:38;96525.75;;;12.50;100.00
23677;BME280;31493;49.058;12.190;2022-10-31T00:32:05;96532.53;;;12.53;100.00
23677;BME280;31493;49.058;12.190;2022-10-31T00:34:32;96539.28;;;12.43;100.00
23677;BME280;31493;49.058;12.190;2022-10-31T00:36:59;96518.78;;;12.51;100.00
23677;BME280;31493;49.058;12.190;2022-10-31T00:39:27;96525.97;;;12.60;100.00
23677;BME280;31493;49.058;12.190;2022-10-31T00:41:54;96514.09;;;12.69;100.00
23677;BME280;31493;49.058;12.190;2022-10-31T00:44:21;96519.00;;;12.73;100.00
23677;BME280;31493;49.058;12.190;2022-10-31T00:46:48;96525.75;;;12.63;100.00
23677;BME280;31493;49.058;12.190;2022-10-31T00:49:15;96525.44;;;12.68;100.00
23677;BME280;31493;49.058;12.190;2022-10-31T00:51:42;96524.41;;;12.57;100.00
23677;BME280;31493;49.058;12.190;2022-10-31T00:54:09;96512.66;;;12.52;100.00
23677;BME280;31493;49.058;12.190;2022-10-31T00:56:37;96534.59;;;12.48;100.00
23677;BME280;31493;49.058;12.190;2022-10-31T00:59:04;96522.84;;;12.55;100.00
23677;BME280;31493;49.058;12.190;2022-10-31T01:01:31;96529.28;;;12.49;100.00
23677;BME280;31493;49.058;12.190;2022-10-31T01:03:58;96520.78;;;12.47;100.00
23677;BME280;31493;49.058;12.190;2022-10-31T01:06:25;96533.44;;;12.39;100.00
23677;BME280;31493;49.058;12.190;2022-10-31T01:08:52;96532.53;;;12.40;100.00
23677;BME280;31493;49.058;12.190;2022-10-31T01:11:22;96535.84;;;12.29;100.00
23677;BME280;31493;49.058;12.190;2022-10-31T01:13:52;96525.03;;;12.23;100.00
23677;BME280;31493;49.058;12.190;2022-10-31T01:16:21;96518.28;;;12.20;100.00
23677;BME280;31493;49.058;12.190;2022-10-31T01:18:49;96524.94;;;12.12;100.00
23677;BME280;31493;49.058;12.190;2022-10-31T01:21:19;96531.38;;;12.19;100.00
23677;BME280;31493;49.058;12.190;2022-10-31T01:23:46;96530.53;;;12.05;100.00
23677;BME280;31493;49.058;12.190;2022-10-31T01:26:15;96533.63;;;11.98;100.00
23677;BME280;31493;49.058;12.190;2022-10-31T01:28:44;96533.31;;;12.02;100.00
23677;BME280;31493;49.058;12.190;2022-10-31T01:31:13;96533.41;;;11.88;100.00
23677;BME280;31493;49.058;12.190;2022-10-31T01:33:40;96535.06;;;11.89;100.00
23677;BME280;31493;49.058;12.190;2022-10-31T01:36:13;96535.59;;;11.94;100.00
23677;BME280;31493;49.058;12.190;2022-10-31T01:38:40;96527.38;;;11.88;100.00
23677;BME280;31493;49.058;12.190;2022-10-31T01:41:08;96527.50;;;11.86;100.00
23677;BME280;31493;49.058;12.190;2022-10-31T01:43:48;96527.09;;;11.92;100.00
23677;BME280;31493;49.058;12.190;2022-10-31T01:46:20;96523.25;;;11.85;100.00
23677;BME280;31493;49.058;12.190;2022-10-31T01:48:49;96528.78;;;11.79;100.00
23677;BME280;31493;49.058;12.190;2022-10-31T01:51:20;96531.09;;;11.83;100.00
23677;BME280;31493;49.058;12.190;2022-10-31T01:53:50;96523.78;;;11.76;100.00
23677;BME280;31493;49.058;12.190;2022-10-31T01:56:18;96525.72;;;11.87;100.00
23677;BME280;31493;49.058;12.190;2022-10-31T01:58:46;96518.50;;;11.77;100.00
23677;BME280;31493;49.058;12.190;2022-10-31T02:01:14;96524.25;;;11.82;100.00
23677;BME280;31493;49.058;12.190;2022-10-31T02:03:44;96528.88;;;11.77;100.00
23677;BME280;31493;49.058;12.190;2022-10-31T02:06:21;96532.75;;;11.84;100.00
23677;BME280;31493;49.058;12.190;2022-10-31T02:08:51;96524.63;;;11.76;100.00
23677;BME280;31493;49.058;12.190;2022-10-31T02:11:18;96528.75;;;11.66;100.00
23677;BME280;31493;49.058;12.190;2022-10-31T02:13:47;96535.19;;;11.61;100.00
23677;BME280;31493;49.058;12.190;2022-10-31T02:16:14;96525.53;;;11.63;100.00
23677;BME280;31493;49.058;12.190;2022-10-31T02:18:41;96528.81;;;11.52;100.00
23677;BME280;31493;49.058;12.190;2022-10-31T02:21:14;96528.19;;;11.48;100.00
23677;BME280;31493;49.058;12.190;2022-10-31T02:24:07;96532.19;;;11.67;100.00
23677;BME280;31493;49.058;12.190;2022-10-31T02:26:45;96521.31;;;11.74;100.00
23677;BME280;31493;49.058;12.190;2022-10-31T02:29:37;96527.47;;;11.59;100.00
23677;BME280;31493;49.058;12.190;2022-10-31T02:32:16;96524.00;;;11.46;100.00
23677;BME280;31493;49.058;12.190;2022-10-31T02:34:52;96527.16;;;11.24;100.00
23677;BME280;31493;49.058;12.190;2022-10-31T02:37:26;96532.06;;;11.41;100.00
23677;BME280;31493;49.058;12.190;2022-10-31T02:40:01;96530.06;;;11.59;100.00
23677;BME280;31493;49.058;12.190;2022-10-31T02:42:34;96526.41;;;11.49;100.00
23677;BME280;31493;49.058;12.190;2022-10-31T02:45:08;96522.97;;;11.36;100.00
23677;BME280;31493;49.058;12.190;2022-10-31T02:47:41;96528.16;;;11.21;100.00
23677;BME280;31493;49.058;12.190;2022-10-31T02:50:13;96540.88;;;11.12;100.00
23677;BME280;31493;49.058;12.190;2022-10-31T02:52:41;96533.16;;;11.24;100.00
23677;BME280;31493;49.058;12.190;2022-10-31T02:55:12;96531.69;;;11.20;100.00
23677;BME280;31493;49.058;12.190;2022-10-31T02:57:41;96531.91;;;11.03;100.00
23677;BME280;31493;49.058;12.190;2022-10-31T03:00:10;96536.09;;;10.91;100.00
23677;BME280;31493;49.058;12.190;2022-10-31T03:02:49;96532.50;;;10.94;100.00
23677;BME280;31493;49.058;12.190;2022-10-31T03:05:45;96532.34;;;10.68;100.00
23677;BME280;31493;49.058;12.190;2022-10-31T03:08:22;96544.25;;;10.42;100.00
23677;BME280;31493;49.058;12.190;2022-10-31T03:10:55;96535.75;;;10.55;100.00
23677;BME280;31493;49.058;12.190;2022-10-31T03:13:31;96535.94;;;10.66;100.00
23677;BME280;31493;49.058;12.190;2022-10-31T03:16:06;96539.34;;;10.38;100.00
23677;BME280;31493;49.058;12.190;2022-10-31T03:18:39;96547.56;;;10.30;100.00
23677;BME280;31493;49.058;12.190;2022-10-31T03:21:11;96538.50;;;10.23;100.00
23677;BME280;31493;49.058;12.190;2022-10-31T03:23:41;96539.72;;;10.46;100.00
23677;BME280;31493;49.058;12.190;2022-10-31T03:26:11;96533.91;;;10.57;100.00
23677;BME280;31493;49.058;12.190;2022-10-31T03:28:44;96548.84;;;10.80;100.00
23677;BME280;31493;49.058;12.190;2022-10-31T03:31:17;96541.00;;;10.82;100.00
23677;BME280;31493;49.058;12.190;2022-10-31T03:33:47;96529.47;;;10.59;100.00
23677;BME280;31493;49.058;12.190;2022-10-31T03:36:15;96554.59;;;10.42;100.00
23677;BME280;31493;49.058;12.190;2022-10-31T03:38:45;96548.69;;;10.55;100.00
23677;BME280;31493;49.058;12.190;2022-10-31T03:41:16;96548.31;;;10.46;100.00
23677;BME280;31493;49.058;12.190;2022-10-31T03:43:54;96545.84;;;10.45;100.00
23677;BME280;31493;49.058;12.190;2022-10-31T03:46:23;96549.06;;;10.48;100.00
23677;BME280;31493;49.058;12.190;2022-10-31T03:48:52;96551.50;;;10.21;100.00
23677;BME280;31493;49.058;12.190;2022-10-31T03:51:22;96562.09;;;10.61;100.00
23677;BME280;31493;49.058;12.190;2022-10-31T03:53:54;96564.22;;;10.40;100.00
23677;BME280;31493;49.058;12.190;2022-10-31T03:56:29;96557.00;;;10.45;100.00
23677;BME280;31493;49.058;12.190;2022-10-31T03:59:00;96560.78;;;10.40;100.00
23677;BME280;31493;49.058;12.190;2022-10-31T04:01:30;96568.88;;;10.19;100.00
23677;BME280;31493;49.058;12.190;2022-10-31T04:04:00;96574.13;;;9.42;100.00
23677;BME280;31493;49.058;12.190;2022-10-31T04:06:29;96569.88;;;9.41;100.00
23677;BME280;31493;49.058;12.190;2022-10-31T04:09:00;96567.16;;;9.74;100.00
23677;BME280;31493;49.058;12.190;2022-10-31T04:11:33;96572.47;;;9.87;100.00
23677;BME280;31493;49.058;12.190;2022-10-31T04:14:02;96570.56;;;9.75;100.00
23677;BME280;31493;49.058;12.190;2022-10-31T04:16:30;96563.59;;;10.07;100.00
23677;BME280;31493;49.058;12.190;2022-10-31T04:18:57;96561.97;;;9.90;100.00
23677;BME280;31493;49.058;12.190;2022-10-31T04:21:29;96567.47;;;9.84;100.00
23677;BME280;31493;49.058;12.190;2022-10-31T04:23:57;96565.38;;;9.45;100.00
23677;BME280;31493;49.058;12.190;2022-10-31T04:26:24;96561.13;;;9.59;100.00
23677;BME280;31493;49.058;12.190;2022-10-31T04:28:51;96555.50;;;9.67;100.00
23677;BME280;31493;49.058;12.190;2022-10-31T04:31:18;96554.00;;;9.63;100.00
23677;BME280;31493;49.058;12.190;2022-10-31T04:33:45;96551.47;;;9.47;100.00
23677;BME280;31493;49.058;12.190;2022-10-31T04:36:12;96560.66;;;9.05;100.00
23677;BME280;31493;49.058;12.190;2022-10-31T04:38:41;96556.41;;;9.04;100.00
23677;BME280;31493;49.058;12.190;2022-10-31T04:41:08;96550.72;;;8.98;100.00
23677;BME280;31493;49.058;12.190;2022-10-31T04:43:35;96550.38;;;9.20;100.00
23677;BME280;31493;49.058;12.190;2022-10-31T04:46:02;96564.22;;;9.34;100.00
23677;BME280;31493;49.058;12.190;2022-10-31T04:48:30;96559.22;;;9.47;100.00
23677;BME280;31493;49.058;12.190;2022-10-31T04:51:00;96552.13;;;9.35;100.00
23677;BME280;31493;49.058;12.190;2022-10-31T04:53:27;96553.16;;;9.17;100.00
23677;BME280;31493;49.058;12.190;2022-10-31T04:55:57;96549.13;;;9.27;100.00
23677;BME280;31493;49.058;12.190;2022-10-31T04:58:24;96552.06;;;9.36;100.00
23677;BME280;31493;49.058;12.190;2022-10-31T05:00:52;96561.22;;;9.42;100.00
23677;BME280;31493;49.058;12.190;2022-10-31T05:03:19;96562.03;;;9.58;100.00
23677;BME280;31493;49.058;12.190;2022-10-31T05:05:46;96556.09;;;9.56;100.00
23677;BME280;31493;49.058;12.190;2022-10-31T05:08:13;96563.59;;;9.61;100.00
23677;BME280;31493;49.058;12.190;2022-10-31T05:10:40;96565.44;;;9.59;100.00
23677;BME280;31493;49.058;12.190;2022-10-31T05:13:09;96557.59;;;9.60;100.00
23677;BME280;31493;49.058;12.190;2022-10-31T05:15:36;96567.22;;;9.58;100.00
23677;BME280;31493;49.058;12.190;2022-10-31T05:18:03;96564.75;;;9.71;100.00
23677;BME280;31493;49.058;12.190;2022-10-31T05:20:30;96560.72;;;9.81;100.00
23677;BME280;31493;49.058;12.190;2022-10-31T05:22:58;96558.09;;;9.97;100.00
23677;BME280;31493;49.058;12.190;2022-10-31T05:25:27;96555.66;;;9.94;100.00
23677;BME280;31493;49.058;12.190;2022-10-31T05:27:54;96554.00;;;9.93;100.00
23677;BME280;31493;49.058;12.190;2022-10-31T05:30:25;96555.38;;;9.84;100.00
23677;BME280;31493;49.058;12.190;2022-10-31T05:32:53;96561.19;;;9.88;100.00
23677;BME280;31493;49.058;12.190;2022-10-31T05:35:21;96558.19;;;9.95;100.00
23677;BME280;31493;49.058;12.190;2022-10-31T05:37:49;96557.63;;;9.90;100.00
23677;BME280;31493;49.058;12.190;2022-10-31T05:40:17;96562.94;;;9.87;100.00
23677;BME280;31493;49.058;12.190;2022-10-31T05:42:46;96552.59;;;9.87;100.00
23677;BME280;31493;49.058;12.190;2022-10-31T05:45:14;96561.53;;;9.82;100.00
23677;BME280;31493;49.058;12.190;2022-10-31T05:47:49;96542.75;;;9.94;100.00
23677;BME280;31493;49.058;12.190;2022-10-31T05:50:16;96552.31;;;9.78;100.00
23677;BME280;31493;49.058;12.190;2022-10-31T05:52:43;96550.00;;;9.73;100.00
23677;BME280;31493;49.058;12.190;2022-10-31T05:55:10;96555.50;;;9.67;100.00
23677;BME280;31493;49.058;12.190;2022-10-31T05:57:37;96562.25;;;9.69;100.00
23677;BME280;31493;49.058;12.190;2022-10-31T06:00:05;96556.09;;;9.72;100.00
23677;BME280;31493;49.058;12.190;2022-10-31T06:02:32;96556.66;;;9.77;100.00
23677;BME280;31493;49.058;12.190;2022-10-31T06:05:01;96546.09;;;9.66;100.00
23677;BME280;31493;49.058;12.190;2022-10-31T06:07:32;96556.91;;;9.73;100.00
23677;BME280;31493;49.058;12.190;2022-10-31T06:09:59;96557.53;;;9.92;100.00
23677;BME280;31493;49.058;12.190;2022-10-31T06:12:26;96545.88;;;9.85;100.00
23677;BME280;31493;49.058;12.190;2022-10-31T06:14:53;96560.38;;;9.87;100.00
23677;BME280;31493;49.058;12.190;2022-10-31T06:17:20;96551.44;;;10.23;100.00
23677;BME280;31493;49.058;12.190;2022-10-31T06:19:47;96558.22;;;10.40;100.00
23677;BME280;31493;49.058;12.190;2022-10-31T06:22:16;96548.97;;;10.64;100.00
23677;BME280;31493;49.058;12.190;2022-10-31T06:24:42;96554.78;;;10.68;100.00
23677;BME280;31493;49.058;12.190;2022-10-31T06:27:09;96555.63;;;11.38;100.00
23677;BME280;31493;49.058;12.190;2022-10-31T06:29:36;96545.25;;;10.97;100.00
23677;BME280;31493;49.058;12.190;2022-10-31T06:32:04;96559.91;;;11.11;100.00
23677;BME280;31493;49.058;12.190;2022-10-31T06:34:31;96550.16;;;11.28;100.00
23677;BME280;31493;49.058;12.190;2022-10-31T06:36:58;96553.84;;;11.39;100.00
23677;BME280;31493;49.058;12.190;2022-10-31T06:39:27;96555.50;;;11.40;100.00
23677;BME280;31493;49.058;12.190;2022-10-31T06:41:54;96551.91;;;11.42;100.00
23677;BME280;31493;49.058;12.190;2022-10-31T06:44:21;96564.56;;;10.91;100.00
23677;BME280;31493;49.058;12.190;2022-10-31T06:46:48;96565.84;;;11.54;100.00
23677;BME280;31493;49.058;12.190;2022-10-31T06:49:15;96568.84;;;11.48;100.00
23677;BME280;31493;49.058;12.190;2022-10-31T06:51:42;96574.25;;;11.30;100.00
23677;BME280;31493;49.058;12.190;2022-10-31T06:54:09;96564.53;;;11.20;100.00
23677;BME280;31493;49.058;12.190;2022-10-31T06:56:37;96573.03;;;11.22;100.00
23677;BME280;31493;49.058;12.190;2022-10-31T06:59:04;96580.94;;;11.47;100.00
23677;BME280;31493;49.058;12.190;2022-10-31T07:01:31;96564.53;;;11.88;100.00
23677;BME280;31493;49.058;12.190;2022-10-31T07:03:58;96575.47;;;11.52;100.00
23677;BME280;31493;49.058;12.190;2022-10-31T07:06:25;96568.84;;;11.48;100.00
23677;BME280;31493;49.058;12.190;2022-10-31T07:08:52;96583.78;;;11.16;100.00
23677;BME280;31493;49.058;12.190;2022-10-31T07:11:19;96582.63;;;10.64;100.00
23677;BME280;31493;49.058;12.190;2022-10-31T07:13:48;96580.06;;;10.20;100.00
23677;BME280;31493;49.058;12.190;2022-10-31T07:16:15;96589.13;;;9.67;100.00
23677;BME280;31493;49.058;12.190;2022-10-31T07:18:42;96585.69;;;9.66;100.00
23677;BME280;31493;49.058;12.190;2022-10-31T07:21:09;96597.31;;;9.59;100.00
23677;BME280;31493;49.058;12.190;2022-10-31T07:23:36;96603.22;;;9.61;100.00
23677;BME280;31493;49.058;12.190;2022-10-31T07:26:03;96603.41;;;9.58;100.00
23677;BME280;31493;49.058;12.190;2022-10-31T07:28:30;96594.28;;;9.51;100.00
23677;BME280;31493;49.058;12.190;2022-10-31T07:30:58;96595.69;;;9.73;100.00
23677;BME280;31493;49.058;12.190;2022-10-31T07:33:26;96597.34;;;9.74;100.00
23677;BME280;31493;49.058;12.190;2022-10-31T07:35:53;96587.06;;;9.88;100.00
23677;BME280;31493;49.058;12.190;2022-10-31T07:38:20;96593.09;;;9.73;100.00
23677;BME280;31493;49.058;12.190;2022-10-31T07:40:50;96590.41;;;9.90;100.00
23677;BME280;31493;49.058;12.190;2022-10-31T07:43:17;96596.41;;;9.90;100.00
23677;BME280;31493;49.058;12.190;2022-10-31T07:45:49;96585.81;;;9.95;100.00
23677;BME280;31493;49.058;12.190;2022-10-31T07:48:18;96589.34;;;9.78;100.00
23677;BME280;31493;49.058;12.190;2022-10-31T07:50:45;96588.53;;;9.62;100.00
23677;BME280;31493;49.058;12.190;2022-10-31T07:53:13;96592.63;;;9.50;100.00
23677;BME280;31493;49.058;12.190;2022-10-31T07:55:41;96582.56;;;9.91;100.00
23677;BME280;31493;49.058;12.190;2022-10-31T07:58:09;96575.28;;;9.98;100.00
23677;BME280;31493;49.058;12.190;2022-10-31T08:00:38;96579.66;;;9.82;100.00
23677;BME280;31493;49.058;12.190;2022-10-31T08:03:06;96580.00;;;10.06;100.00
23677;BME280;31493;49.058;12.190;2022-10-31T08:05:35;96579.66;;;9.82;100.00
23677;BME280;31493;49.058;12.190;2022-10-31T08:08:03;96568.47;;;10.11;100.00
23677;BME280;31493;49.058;12.190;2022-10-31T08:10:32;96575.38;;;10.27;100.00
23677;BME280;31493;49.058;12.190;2022-10-31T08:13:00;96577.88;;;10.28;100.00
23677;BME280;31493;49.058;12.190;2022-10-31T08:15:28;96576.78;;;10.32;100.00
23677;BME280;31493;49.058;12.190;2022-10-31T08:17:55;96566.63;;;10.43;100.00
23677;BME280;31493;49.058;12.190;2022-10-31T08:20:23;96562.81;;;10.49;100.00
23677;BME280;31493;49.058;12.190;2022-10-31T08:22:55;96564.88;;;10.58;100.00
23677;BME280;31493;49.058;12.190;2022-10-31T08:25:23;96567.19;;;10.63;100.00
23677;BME280;31493;49.058;12.190;2022-10-31T08:27:51;96560.06;;;10.81;100.00
23677;BME280;31493;49.058;12.190;2022-10-31T08:30:18;96560.97;;;10.80;100.00
23677;BME280;31493;49.058;12.190;2022-10-31T08:32:46;96555.16;;;10.90;100.00
23677;BME280;31493;49.058;12.190;2022-10-31T08:35:13;96552.19;;;10.96;100.00
23677;BME280;31493;49.058;12.190;2022-10-31T08:37:41;96547.91;;;11.10;100.00
23677;BME280;31493;49.058;12.190;2022-10-31T08:40:10;96539.06;;;11.26;100.00
23677;BME280;31493;49.058;12.190;2022-10-31T08:42:38;96538.91;;;11.29;100.00
23677;BME280;31493;49.058;12.190;2022-10-31T08:45:06;96541.09;;;11.36;100.00
23677;BME280;31493;49.058;12.190;2022-10-31T08:47:33;96533.44;;;11.47;100.00
23677;BME280;31493;49.058;12.190;2022-10-31T08:50:00;96541.34;;;11.45;100.00
23677;BME280;31493;49.058;12.190;2022-10-31T08:52:27;96526.72;;;11.44;100.00
23677;BME280;31493;49.058;12.190;2022-10-31T08:54:54;96522.38;;;11.84;100.00
23677;BME280;31493;49.058;12.190;2022-10-31T08:57:22;96544.41;;;11.92;100.00
23677;BME280;31493;49.058;12.190;2022-10-31T08:59:49;96536.81;;;11.89;100.00
23677;BME280;31493;49.058;12.190;2022-10-31T09:02:16;96529.09;;;11.74;100.00
23677;BME280;31493;49.058;12.190;2022-10-31T09:04:43;96526.97;;;11.94;100.00
23677;BME280;31493;49.058;12.190;2022-10-31T09:07:10;96529.69;;;11.92;100.00
23677;BME280;31493;49.058;12.190;2022-10-31T09:09:37;96534.19;;;12.16;100.00
23677;BME280;31493;49.058;12.190;2022-10-31T09:12:04;96523.81;;;12.16;100.00
23677;BME280;31493;49.058;12.190;2022-10-31T09:14:33;96525.03;;;12.10;100.00
23677;BME280;31493;49.058;12.190;2022-10-31T09:17:00;96519.34;;;12.30;100.00
23677;BME280;31493;49.058;12.190;2022-10-31T09:19:27;96523.28;;;12.36;100.00
23677;BME280;31493;49.058;12.190;2022-10-31T09:21:54;96521.91;;;12.18;100.00
23677;BME280;31493;49.058;12.190;2022-10-31T09:24:21;96523.88;;;12.01;100.00
23677;BME280;31493;49.058;12.190;2022-10-31T09:26:48;96530.94;;;11.99;100.00
23677;BME280;31493;49.058;12.190;2022-10-31T09:29:15;96521.16;;;11.90;100.00
23677;BME280;31493;49.058;12.190;2022-10-31T09:31:43;96530.09;;;11.72;100.00
23677;BME280;31493;49.058;12.190;2022-10-31T09:34:10;96530.81;;;12.01;100.00
23677;BME280;31493;49.058;12.190;2022-10-31T09:36:38;96537.25;;;11.95;100.00
23677;BME280;31493;49.058;12.190;2022-10-31T09:39:05;96524.25;;;11.82;100.00
23677;BME280;31493;49.058;12.190;2022-10-31T09:41:55;96528.22;;;11.61;100.00
23677;BME280;31493;49.058;12.190;2022-10-31T09:44:28;96527.81;;;11.94;100.00
23677;BME280;31493;49.058;12.190;2022-10-31T09:47:05;96526.25;;;11.92;100.00
23677;BME280;31493;49.058;12.190;2022-10-31T09:49:48;96522.53;;;12.08;100.00
23677;BME280;31493;49.058;12.190;2022-10-31T09:52:21;96530.69;;;11.90;100.00
23677;BME280;31493;49.058;12.190;2022-10-31T09:54:52;96516.72;;;11.92;100.00
23677;BME280;31493;49.058;12.190;2022-10-31T09:57:27;96520.47;;;12.14;100.00
23677;BME280;31493;49.058;12.190;2022-10-31T09:59:56;96523.88;;;12.14;100.00
23677;BME280;31493;49.058;12.190;2022-10-31T10:02:29;96523.81;;;12.41;100.00
23677;BME280;31493;49.058;12.190;2022-10-31T10:05:00;96526.59;;;12.38;100.00
23677;BME280;31493;49.058;12.190;2022-10-31T10:07:35;96521.41;;;12.38;100.00
23677;BME280;31493;49.058;12.190;2022-10-31T10:10:14;96514.41;;;12.64;100.00
23677;BME280;31493;49.058;12.190;2022-10-31T10:12:59;96516.69;;;12.81;100.00
23677;BME280;31493;49.058;12.190;2022-10-31T10:18:40;96499.16;;;13.22;100.00
23677;BME280;31493;49.058;12.190;2022-10-31T10:21:25;96499.56;;;12.79;100.00
23677;BME280;31493;49.058;12.190;2022-10-31T10:24:03;96486.41;;;12.93;100.00
23677;BME280;31493;49.058;12.190;2022-10-31T10:26:37;96495.97;;;12.93;100.00
23677;BME280;31493;49.058;12.190;2022-10-31T10:29:17;96498.91;;;12.88;100.00
23677;BME280;31493;49.058;12.190;2022-10-31T10:31:49;96500.66;;;12.87;100.00
23677;BME280;31493;49.058;12.190;2022-10-31T10:34:23;96494.31;;;12.91;100.00
23677;BME280;31493;49.058;12.190;2022-10-31T10:36:57;96489.75;;;13.19;100.00
23677;BME280;31493;49.058;12.190;2022-10-31T10:39:27;96495.94;;;13.42;100.00
23677;BME280;31493;49.058;12.190;2022-10-31T10:41:58;96491.44;;;13.20;100.00
23677;BME280;31493;49.058;12.190;2022-10-31T10:44:45;96481.47;;;13.38;100.00
23677;BME280;31493;49.058;12.190;2022-10-31T10:47:36;96486.25;;;13.44;100.00
23677;BME280;31493;49.058;12.190;2022-10-31T10:50:13;96481.59;;;13.60;100.00
23677;BME280;31493;49.058;12.190;2022-10-31T10:52:48;96470.38;;;13.36;100.00
23677;BME280;31493;49.058;12.190;2022-10-31T10:55:27;96469.44;;;13.37;100.00
23677;BME280;31493;49.058;12.190;2022-10-31T10:57:59;96473.41;;;13.54;100.00
23677;BME280;31493;49.058;12.190;2022-10-31T11:00:30;96466.50;;;13.41;100.00
23677;BME280;31493;49.058;12.190;2022-10-31T11:02:57;96470.38;;;13.36;100.00
23677;BME280;31493;49.058;12.190;2022-10-31T11:05:33;96467.00;;;13.47;100.00
23677;BME280;31493;49.058;12.190;2022-10-31T11:08:02;96459.91;;;13.49;100.00
23677;BME280;31493;49.058;12.190;2022-10-31T11:10:29;96470.31;;;13.49;100.00
23677;BME280;31493;49.058;12.190;2022-10-31T11:13:00;96460.06;;;13.58;100.00
23677;BME280;31493;49.058;12.190;2022-10-31T11:15:31;96472.75;;;13.74;100.00
23677;BME280;31493;49.058;12.190;2022-10-31T11:17:59;96467.94;;;13.81;100.00
23677;BME280;31493;49.058;12.190;2022-10-31T11:20:30;96457.81;;;13.89;100.00
23677;BME280;31493;49.058;12.190;2022-10-31T11:23:03;96449.19;;;14.22;100.00
23677;BME280;31493;49.058;12.190;2022-10-31T11:25:31;96437.97;;;14.21;100.00
23677;BME280;31493;49.058;12.190;2022-10-31T11:28:01;96434.53;;;14.21;100.00
23677;BME280;31493;49.058;12.190;2022-10-31T11:30:29;96436.78;;;14.25;100.00
23677;BME280;31493;49.058;12.190;2022-10-31T11:32:58;96437.97;;;14.21;100.00
23677;BME280;31493;49.058;12.190;2022-10-31T11:35:25;96441.19;;;14.47;100.00
23677;BME280;31493;49.058;12.190;2022-10-31T11:37:57;96431.13;;;14.54;100.00
23677;BME280;31493;49.058;12.190;2022-10-31T11:40:26;96427.44;;;14.45;100.00
23677;BME280;31493;49.058;12.190;2022-10-31T11:42:56;96425.91;;;14.54;100.00
23677;BME280;31493;49.058;12.190;2022-10-31T11:45:29;96418.53;;;14.82;100.00
23677;BME280;31493;49.058;12.190;2022-10-31T11:47:59;96421.13;;;14.93;100.00
23677;BME280;31493;49.058;12.190;2022-10-31T11:50:32;96410.94;;;15.22;100.00
23677;BME280;31493;49.058;12.190;2022-10-31T11:53:02;96406.09;;;15.49;100.00
23677;BME280;31493;49.058;12.190;2022-10-31T11:55:30;96401.88;;;15.37;100.00
23677;BME280;31493;49.058;12.190;2022-10-31T11:57:58;96407.63;;;14.88;100.00
23677;BME280;31493;49.058;12.190;2022-10-31T12:00:27;96402.09;;;14.36;100.00
23677;BME280;31493;49.058;12.190;2022-10-31T12:03:10;96414.44;;;14.57;100.00
23677;BME280;31493;49.058;12.190;2022-10-31T12:05:39;96410.03;;;14.46;100.00
23677;BME280;31493;49.058;12.190;2022-10-31T12:08:09;96411.06;;;14.88;100.00
23677;BME280;31493;49.058;12.190;2022-10-31T12:10:46;96395.44;;;15.20;100.00
23677;BME280;31493;49.058;12.190;2022-10-31T12:13:30;96404.41;;;14.95;100.00
23677;BME280;31493;49.058;12.190;2022-10-31T12:16:02;96401.59;;;14.76;100.00
23677;BME280;31493;49.058;12.190;2022-10-31T12:18:48;96390.25;;;15.09;100.00
23677;BME280;31493;49.058;12.190;2022-10-31T12:21:27;96386.16;;;14.95;100.00
23677;BME280;31493;49.058;12.190;2022-10-31T12:24:09;96387.91;;;15.06;100.00
23677;BME280;31493;49.058;12.190;2022-10-31T12:26:42;96373.13;;;14.95;100.00
23677;BME280;31493;49.058;12.190;2022-10-31T12:29:22;96367.84;;;14.86;100.00
23677;BME280;31493;49.058;12.190;2022-10-31T12:32:00;96367.72;;;14.87;100.00
23677;BME280;31493;49.058;12.190;2022-10-31T12:34:47;96372.66;;;14.90;100.00
23677;BME280;31493;49.058;12.190;2022-10-31T12:37:26;96368.50;;;14.99;100.00
23677;BME280;31493;49.058;12.190;2022-10-31T12:40:06;96360.19;;;15.26;100.00
23677;BME280;31493;49.058;12.190;2022-10-31T12:42:45;96357.97;;;15.21;100.00
23677;BME280;31493;49.058;12.190;2022-10-31T12:45:31;96361.63;;;15.51;100.00
23677;BME280;31493;49.058;12.190;2022-10-31T12:48:19;96356.66;;;15.48;100.00
23677;BME280;31493;49.058;12.190;2022-10-31T12:50:57;96345.38;;;15.89;100.00
23677;BME280;31493;49.058;12.190;2022-10-31T12:53:38;96351.41;;;16.10;100.00
23677;BME280;31493;49.058;12.190;2022-10-31T12:56:21;96343.34;;;16.23;100.00
23677;BME280;31493;49.058;12.190;2022-10-31T12:58:55;96337.38;;;16.11;100.00
23677;BME280;31493;49.058;12.190;2022-10-31T13:01:29;96336.94;;;16.06;100.00